Terminal Aerodrome Forecast
Issued by NWS

Home | Current Version | Previous Version | Text Only | Print | Product List | Glossary On
Versions: 1 2 3 4 5 6 7 8 9 10 11 12 13 14 15 16 17 18
000
FTUS45 KGJT 231734
TAFCNY
TAF
KCNY 231734Z 2318/2418 15010KT P6SM VCSH SCT050 BKN080
     FM231900 21020G28KT P6SM VCSH SCT025 BKN045
      TEMPO 2319/2323 4SM -SHRASN BR OVC025
     FM232300 23018G26KT P6SM VCSH BKN060
     FM240400 22011KT P6SM VCSH OVC060
     FM241100 26006KT P6SM BKN060=

USA.gov is the U.S. government's official web portal to all federal, state and local government web resources and services.